Johnston, Rhode Island
Current Conditions -  °F | °C
As of 3:15 AM on Thursday 27 Nov 2014 (Local Time) from KSFZ Reporting Station
Overcast Overcast  
Wind Chill: 26°   Ceiling: 1400
Heat Index: 34°   Visibility: 8mi
Dew Point: 27°   Wind: 10mph
Humidity: 75%   Direction: 330°NNW
Pressure: 29.74"   Gusts: 17mph
Location:  41.83°N, 71.5°W
Report Text: KSFZ 270815Z 33009G15KT 8SM SCT006 OVC014 01/M03 A2974 RMK AO1 P0001
Loading
Personal Weather Stations






























Interactive Weather Map New forecast layout! Learn more

10-Day Weather Forecast

Advertisements
Track Severe Weather on mobile